createdAt,value
2019-01-30T00:00:51.666Z,0.00
2019-01-30T00:01:51.643Z,0.00
2019-01-30T00:02:51.633Z,0.00
2019-01-30T00:03:51.626Z,0.00
2019-01-30T00:04:51.611Z,0.00
2019-01-30T00:05:51.611Z,0.00
2019-01-30T00:06:51.590Z,0.00
2019-01-30T00:07:51.580Z,0.00
2019-01-30T00:08:51.582Z,0.00
2019-01-30T00:09:51.562Z,0.00
2019-01-30T00:10:51.559Z,0.00
2019-01-30T00:11:51.539Z,0.00
2019-01-30T00:12:51.527Z,0.00
2019-01-30T00:13:51.519Z,0.00
2019-01-30T00:14:51.508Z,0.00
2019-01-30T00:15:56.420Z,0.00
2019-01-30T00:16:52.483Z,0.00
2019-01-30T00:17:51.474Z,0.00
2019-01-30T00:18:51.463Z,0.00
2019-01-30T00:19:51.453Z,0.00
2019-01-30T00:20:51.451Z,0.00
2019-01-30T00:21:51.434Z,0.00
2019-01-30T00:22:51.421Z,0.00
2019-01-30T00:23:51.410Z,0.00
2019-01-30T00:24:51.400Z,0.00
2019-01-30T00:25:51.401Z,0.00
2019-01-30T00:26:51.381Z,0.00
2019-01-30T00:27:51.370Z,0.00
2019-01-30T00:28:51.358Z,0.00
2019-01-30T00:29:51.346Z,0.00
2019-01-30T00:30:51.344Z,0.00
2019-01-30T00:31:51.324Z,0.00
2019-01-30T00:32:51.314Z,0.00
2019-01-30T00:33:51.307Z,0.00
2019-01-30T00:34:51.293Z,0.00
2019-01-30T00:35:51.292Z,0.00
2019-01-30T00:36:51.273Z,0.00
2019-01-30T00:37:51.263Z,0.00
2019-01-30T00:38:51.254Z,0.00
2019-01-30T00:39:51.242Z,0.00
2019-01-30T00:40:51.240Z,0.00
2019-01-30T00:41:51.219Z,0.00
2019-01-30T00:42:51.208Z,0.00
2019-01-30T00:43:51.199Z,0.00
2019-01-30T00:44:51.189Z,0.00
2019-01-30T00:45:51.186Z,0.00
2019-01-30T00:46:51.165Z,0.00
2019-01-30T00:47:51.156Z,0.00
2019-01-30T00:48:51.144Z,0.00
2019-01-30T00:49:51.133Z,0.00
2019-01-30T00:50:51.130Z,0.00
2019-01-30T00:51:51.111Z,0.00
2019-01-30T00:52:51.105Z,0.00
2019-01-30T00:53:51.092Z,0.00
2019-01-30T00:54:51.079Z,0.00
2019-01-30T00:55:51.078Z,0.00
2019-01-30T00:56:51.057Z,0.00
2019-01-30T00:57:51.047Z,0.00
2019-01-30T00:58:51.036Z,0.00
2019-01-30T00:59:51.025Z,0.00
2019-01-30T01:00:51.030Z,0.00
2019-01-30T01:01:51.004Z,0.00
2019-01-30T01:02:51.004Z,0.00
2019-01-30T01:03:50.984Z,0.00
2019-01-30T01:04:50.974Z,0.00
2019-01-30T01:05:50.970Z,0.00
2019-01-30T01:06:50.952Z,0.00
2019-01-30T01:07:50.939Z,0.00
2019-01-30T01:08:50.932Z,0.00
2019-01-30T01:09:50.918Z,0.00
2019-01-30T01:10:50.916Z,0.00
2019-01-30T01:11:50.896Z,0.00
2019-01-30T01:12:50.888Z,0.00
2019-01-30T01:13:50.878Z,0.00
2019-01-30T01:14:50.864Z,0.00
2019-01-30T01:15:50.863Z,0.00
2019-01-30T01:16:50.843Z,0.00
2019-01-30T01:17:50.833Z,0.00
2019-01-30T01:18:50.828Z,0.00
2019-01-30T01:19:50.905Z,0.00
2019-01-30T01:20:50.811Z,0.00
2019-01-30T01:21:50.788Z,0.00
2019-01-30T01:22:50.782Z,0.00
2019-01-30T01:23:50.769Z,0.00
2019-01-30T01:24:50.756Z,0.00
2019-01-30T01:25:50.756Z,0.00
2019-01-30T01:26:50.738Z,0.00
2019-01-30T01:27:50.728Z,0.00
2019-01-30T01:28:50.716Z,0.00
2019-01-30T01:29:50.706Z,0.00
2019-01-30T01:30:50.706Z,0.00
2019-01-30T01:31:50.683Z,0.00
2019-01-30T01:32:50.725Z,0.00
2019-01-30T01:33:50.665Z,0.00
2019-01-30T01:34:50.651Z,0.00
2019-01-30T01:35:50.647Z,0.00
2019-01-30T01:36:50.628Z,0.00
2019-01-30T01:37:50.622Z,0.00
2019-01-30T01:38:50.608Z,0.00
2019-01-30T01:39:51.038Z,0.00
2019-01-30T01:40:50.593Z,0.00
2019-01-30T01:41:50.575Z,0.00
2019-01-30T01:42:50.565Z,0.00
2019-01-30T01:43:50.552Z,0.00
2019-01-30T01:44:50.542Z,0.00
2019-01-30T01:45:50.539Z,0.00
2019-01-30T01:46:50.522Z,0.00
2019-01-30T01:47:50.513Z,0.00
2019-01-30T01:48:50.505Z,0.00
2019-01-30T01:49:50.488Z,0.00
2019-01-30T01:50:50.486Z,0.00
2019-01-30T01:51:50.467Z,0.00
2019-01-30T01:52:50.459Z,0.00
2019-01-30T01:53:50.447Z,0.00
2019-01-30T01:54:50.435Z,0.00
2019-01-30T01:55:50.438Z,0.00
2019-01-30T01:56:50.415Z,0.00
2019-01-30T01:57:50.402Z,0.00
2019-01-30T01:58:50.394Z,0.00
2019-01-30T01:59:50.380Z,0.00
2019-01-30T02:00:50.382Z,0.00
2019-01-30T02:01:50.358Z,0.00
2019-01-30T02:02:50.349Z,0.00
2019-01-30T02:03:50.339Z,0.00
2019-01-30T02:04:50.329Z,0.00
2019-01-30T02:05:50.331Z,0.00
2019-01-30T02:06:50.308Z,0.00
2019-01-30T02:07:50.295Z,0.00
2019-01-30T02:08:50.283Z,0.00
2019-01-30T02:09:50.273Z,0.00
2019-01-30T02:10:50.271Z,0.00
2019-01-30T02:11:50.254Z,0.00
2019-01-30T02:12:50.248Z,0.00
2019-01-30T02:13:50.230Z,0.00
2019-01-30T02:14:50.219Z,0.00
2019-01-30T02:15:50.248Z,0.00
2019-01-30T02:16:50.202Z,0.00
2019-01-30T02:17:50.191Z,0.00
2019-01-30T02:18:50.180Z,0.00
2019-01-30T02:19:50.165Z,0.00
2019-01-30T02:20:50.157Z,0.00
2019-01-30T02:21:50.154Z,0.00
2019-01-30T02:22:50.137Z,0.00
2019-01-30T02:23:50.226Z,0.00
2019-01-30T02:24:50.113Z,0.00
2019-01-30T02:25:50.102Z,0.00
2019-01-30T02:26:50.102Z,0.00
2019-01-30T02:27:50.084Z,0.00
2019-01-30T02:28:50.069Z,0.00
2019-01-30T02:29:50.066Z,0.00
2019-01-30T02:30:50.049Z,0.00
2019-01-30T02:31:50.045Z,0.00
2019-01-30T02:32:50.027Z,0.00
2019-01-30T02:33:50.021Z,0.00
2019-01-30T02:34:50.008Z,0.00
2019-01-30T02:35:49.995Z,0.00
2019-01-30T02:36:50.000Z,0.00
2019-01-30T02:37:50.075Z,0.00
2019-01-30T02:38:49.964Z,0.00
2019-01-30T02:39:49.953Z,0.00
2019-01-30T02:40:49.941Z,0.00
2019-01-30T02:41:49.938Z,0.00
2019-01-30T02:42:49.932Z,0.00
2019-01-30T02:43:49.911Z,0.00
2019-01-30T02:44:49.903Z,0.00
2019-01-30T02:45:49.889Z,0.00
2019-01-30T02:46:49.891Z,0.00
2019-01-30T02:47:49.872Z,0.00
2019-01-30T02:48:49.857Z,0.00
2019-01-30T02:49:49.844Z,0.00
2019-01-30T02:50:49.835Z,0.00
2019-01-30T02:51:49.835Z,0.00
2019-01-30T02:52:49.816Z,0.00
2019-01-30T02:53:49.804Z,0.00
2019-01-30T02:54:49.791Z,0.00
2019-01-30T02:55:49.782Z,0.00
2019-01-30T02:56:49.780Z,0.00
2019-01-30T02:57:49.763Z,0.00
2019-01-30T02:58:49.747Z,0.00
2019-01-30T02:59:49.736Z,0.00
2019-01-30T03:00:58.973Z,0.00
2019-01-30T03:01:50.727Z,0.00
2019-01-30T03:02:49.706Z,0.00
2019-01-30T03:03:49.694Z,0.00
2019-01-30T03:04:49.688Z,0.00
2019-01-30T03:05:49.686Z,0.00
2019-01-30T03:06:49.670Z,0.00
2019-01-30T03:07:49.672Z,0.00
2019-01-30T03:08:49.641Z,0.00
2019-01-30T03:09:49.662Z,0.00
2019-01-30T03:10:49.622Z,0.00
2019-01-30T03:11:49.617Z,0.00
2019-01-30T03:12:49.600Z,0.00
2019-01-30T03:13:49.588Z,0.00
2019-01-30T03:14:49.578Z,0.00
2019-01-30T03:15:49.567Z,0.00
2019-01-30T03:16:49.566Z,0.00
2019-01-30T03:17:49.544Z,0.00
2019-01-30T03:18:49.534Z,0.00
2019-01-30T03:19:49.522Z,0.00
2019-01-30T03:20:49.514Z,0.00
2019-01-30T03:21:49.511Z,0.00
2019-01-30T03:22:49.502Z,0.00
2019-01-30T03:23:49.569Z,0.00
2019-01-30T03:24:49.471Z,0.00
2019-01-30T03:25:49.458Z,0.00
2019-01-30T03:26:49.496Z,0.00
2019-01-30T03:27:49.441Z,0.00
2019-01-30T03:28:49.428Z,0.00
2019-01-30T03:29:49.417Z,0.00
2019-01-30T03:30:49.405Z,0.00
2019-01-30T03:31:49.408Z,0.00
2019-01-30T03:32:49.384Z,0.00
2019-01-30T03:33:49.373Z,0.00
2019-01-30T03:34:49.364Z,0.00
2019-01-30T03:35:49.351Z,0.00
2019-01-30T03:36:49.356Z,0.00
2019-01-30T03:37:49.329Z,0.00
2019-01-30T03:38:49.331Z,0.00
2019-01-30T03:39:49.309Z,0.00
2019-01-30T03:40:49.299Z,0.00
2019-01-30T03:41:49.297Z,0.00
2019-01-30T03:42:49.276Z,0.00
2019-01-30T03:43:49.267Z,0.00
2019-01-30T03:44:49.254Z,0.00
2019-01-30T03:45:49.270Z,0.00
2019-01-30T03:46:49.242Z,0.00
2019-01-30T03:47:49.222Z,0.00
2019-01-30T03:48:49.217Z,0.00
2019-01-30T03:49:49.204Z,0.00
2019-01-30T03:50:49.193Z,0.00
2019-01-30T03:51:49.189Z,0.00
2019-01-30T03:52:49.172Z,0.00
2019-01-30T03:53:49.159Z,0.00
2019-01-30T03:54:49.226Z,0.00
2019-01-30T03:55:49.139Z,0.00
2019-01-30T03:56:49.141Z,0.00
2019-01-30T03:57:49.121Z,0.00
2019-01-30T03:58:49.106Z,0.00
2019-01-30T03:59:49.098Z,0.00
2019-01-30T04:00:49.088Z,0.00
2019-01-30T04:01:49.086Z,0.00
2019-01-30T04:02:49.068Z,0.00
2019-01-30T04:03:49.059Z,0.00
2019-01-30T04:04:49.049Z,0.00
2019-01-30T04:05:49.036Z,0.00
2019-01-30T04:06:49.032Z,0.00
2019-01-30T04:07:49.014Z,0.00
2019-01-30T04:08:49.005Z,0.00
2019-01-30T04:09:48.991Z,0.00
2019-01-30T04:10:48.982Z,0.00
2019-01-30T04:11:48.979Z,0.00
2019-01-30T04:12:48.962Z,0.00
2019-01-30T04:13:48.953Z,0.00
2019-01-30T04:14:48.945Z,0.00
2019-01-30T04:15:48.929Z,0.00
2019-01-30T04:16:48.927Z,0.00
2019-01-30T04:17:48.913Z,0.00
2019-01-30T04:18:48.897Z,0.00
2019-01-30T04:19:48.887Z,0.00
2019-01-30T04:20:48.874Z,0.00
2019-01-30T04:21:48.877Z,0.00
2019-01-30T04:22:48.854Z,0.00
2019-01-30T04:23:48.843Z,0.00
2019-01-30T04:24:48.834Z,0.00
2019-01-30T04:25:48.824Z,0.00
2019-01-30T04:26:48.839Z,0.00
2019-01-30T04:27:48.805Z,0.00
2019-01-30T04:28:48.792Z,0.00
2019-01-30T04:29:48.784Z,0.00
2019-01-30T04:30:48.771Z,0.00
2019-01-30T04:31:48.760Z,0.00
2019-01-30T04:32:48.763Z,0.00
2019-01-30T04:33:48.737Z,0.00
2019-01-30T04:34:48.734Z,0.00
2019-01-30T04:35:48.717Z,0.00
2019-01-30T04:36:48.707Z,0.00
2019-01-30T04:37:48.709Z,0.00
2019-01-30T04:38:48.687Z,0.00
2019-01-30T04:39:48.682Z,0.00
2019-01-30T04:40:48.668Z,0.00
2019-01-30T04:41:48.659Z,0.00
2019-01-30T04:42:48.656Z,0.00
2019-01-30T04:43:48.635Z,0.00
2019-01-30T04:44:48.627Z,0.00
2019-01-30T04:45:48.618Z,0.00
2019-01-30T04:46:48.601Z,0.00
2019-01-30T04:47:48.605Z,0.00
2019-01-30T04:48:48.582Z,0.00
2019-01-30T04:49:48.595Z,0.00
2019-01-30T04:50:48.571Z,0.00
2019-01-30T04:51:48.553Z,0.00
2019-01-30T04:52:48.551Z,0.00
2019-01-30T04:53:48.531Z,0.00
2019-01-30T04:54:48.521Z,0.00
2019-01-30T04:55:48.509Z,0.00
2019-01-30T04:56:48.518Z,0.00
2019-01-30T04:57:48.504Z,0.00
2019-01-30T04:58:48.477Z,0.00
2019-01-30T04:59:48.467Z,0.00
2019-01-30T05:00:48.458Z,0.00
2019-01-30T05:01:49.598Z,0.00
2019-01-30T05:02:48.445Z,0.00
2019-01-30T05:03:48.578Z,0.00
2019-01-30T05:04:48.416Z,0.00
2019-01-30T05:05:48.405Z,0.00
2019-01-30T05:06:48.396Z,0.00
2019-01-30T05:07:48.394Z,0.00
2019-01-30T05:08:48.384Z,0.00
2019-01-30T05:09:48.364Z,0.00
2019-01-30T05:10:48.353Z,0.00
2019-01-30T05:11:48.345Z,0.00
2019-01-30T05:12:48.345Z,0.00
2019-01-30T05:13:48.326Z,0.00
2019-01-30T05:14:48.313Z,0.00
2019-01-30T05:15:48.306Z,0.00
2019-01-30T05:16:48.291Z,0.00
2019-01-30T05:17:48.291Z,0.00
2019-01-30T05:18:48.270Z,0.00
2019-01-30T05:19:48.265Z,0.00
2019-01-30T05:20:48.261Z,0.00
2019-01-30T05:21:48.248Z,0.00
2019-01-30T05:22:48.238Z,0.00
2019-01-30T05:23:48.219Z,0.00
2019-01-30T05:24:48.312Z,0.00
2019-01-30T05:25:48.217Z,0.00
2019-01-30T05:26:48.187Z,0.00
2019-01-30T05:27:48.238Z,0.00
2019-01-30T05:28:48.168Z,0.00
2019-01-30T05:29:48.157Z,0.00
2019-01-30T05:30:48.150Z,0.00
2019-01-30T05:31:48.151Z,0.00
2019-01-30T05:32:48.126Z,0.00
2019-01-30T05:33:48.124Z,0.00
2019-01-30T05:34:48.105Z,0.00
2019-01-30T05:35:48.094Z,0.00
2019-01-30T05:36:48.091Z,0.00
2019-01-30T05:37:51.128Z,0.00
2019-01-30T05:38:48.073Z,0.00
2019-01-30T05:39:48.053Z,0.00
2019-01-30T05:40:48.043Z,0.00
2019-01-30T05:41:48.042Z,0.00
2019-01-30T05:42:48.158Z,0.00
2019-01-30T05:43:48.022Z,0.00
2019-01-30T05:44:48.003Z,0.00
2019-01-30T05:45:47.992Z,0.00
2019-01-30T05:46:47.982Z,0.00
2019-01-30T05:47:47.973Z,0.00
2019-01-30T05:48:48.101Z,0.00
2019-01-30T05:49:47.950Z,0.00
2019-01-30T05:50:47.939Z,0.00
2019-01-30T05:51:47.931Z,0.00
2019-01-30T05:52:47.919Z,0.00
2019-01-30T05:53:47.908Z,0.00
2019-01-30T05:54:47.912Z,0.00
2019-01-30T05:55:47.888Z,0.00
2019-01-30T05:56:47.880Z,0.00
2019-01-30T05:57:47.872Z,0.00
2019-01-30T05:58:47.859Z,0.00
2019-01-30T05:59:47.855Z,0.00
2019-01-30T06:00:47.837Z,0.00
2019-01-30T06:01:47.826Z,0.00
2019-01-30T06:02:47.817Z,0.00
2019-01-30T06:03:47.879Z,0.00
2019-01-30T06:04:47.977Z,0.00
2019-01-30T06:05:47.785Z,0.00
2019-01-30T06:06:47.776Z,0.00
2019-01-30T06:07:47.764Z,0.00
2019-01-30T06:08:47.754Z,0.00
2019-01-30T06:09:47.754Z,0.00
2019-01-30T06:10:47.857Z,0.00
2019-01-30T06:11:47.729Z,0.00
2019-01-30T06:12:47.714Z,0.00
2019-01-30T06:13:47.703Z,4.00
2019-01-30T06:14:47.705Z,4.00
2019-01-30T06:15:47.683Z,0.00
2019-01-30T06:16:47.673Z,0.00
2019-01-30T06:17:47.660Z,4.00
2019-01-30T06:18:47.652Z,0.00
2019-01-30T06:19:47.650Z,4.00
2019-01-30T06:20:47.630Z,4.00
2019-01-30T06:21:47.620Z,8.00
2019-01-30T06:22:47.618Z,8.00
2019-01-30T06:23:47.604Z,8.00
2019-01-30T06:24:47.616Z,8.00
2019-01-30T06:25:47.582Z,12.00
2019-01-30T06:26:47.574Z,12.00
2019-01-30T06:27:47.562Z,12.00
2019-01-30T06:28:47.551Z,12.00
2019-01-30T06:29:47.538Z,16.00
2019-01-30T06:30:47.538Z,20.00
2019-01-30T06:31:47.522Z,24.00
2019-01-30T06:32:47.506Z,24.00
2019-01-30T06:33:47.497Z,32.00
2019-01-30T06:34:47.488Z,36.00
2019-01-30T06:35:47.548Z,44.00
2019-01-30T06:36:47.467Z,48.00
2019-01-30T06:37:47.458Z,56.00
2019-01-30T06:38:47.447Z,64.00
2019-01-30T06:39:47.437Z,72.00
2019-01-30T06:40:47.434Z,84.00
2019-01-30T06:41:47.417Z,92.00
2019-01-30T06:42:47.407Z,104.00
2019-01-30T06:43:47.395Z,108.00
2019-01-30T06:44:47.384Z,116.00
2019-01-30T06:45:47.382Z,124.00
2019-01-30T06:46:47.363Z,128.00
2019-01-30T06:47:47.355Z,144.00
2019-01-30T06:48:47.343Z,152.00
2019-01-30T06:49:47.333Z,164.00
2019-01-30T06:50:47.331Z,180.00
2019-01-30T06:51:47.312Z,196.00
2019-01-30T06:52:47.302Z,208.00
2019-01-30T06:53:47.291Z,224.00
2019-01-30T06:54:47.283Z,244.00
2019-01-30T06:55:47.281Z,260.00
2019-01-30T06:56:47.261Z,284.00
2019-01-30T06:57:47.251Z,304.00
2019-01-30T06:58:47.240Z,324.00
2019-01-30T06:59:47.230Z,348.00
2019-01-30T07:00:47.230Z,372.00
2019-01-30T07:01:47.209Z,400.00
2019-01-30T07:02:47.204Z,424.00
2019-01-30T07:03:47.188Z,452.00
2019-01-30T07:04:47.178Z,488.00
2019-01-30T07:05:47.207Z,524.00
2019-01-30T07:06:47.158Z,564.00
2019-01-30T07:07:47.149Z,604.00
2019-01-30T07:08:47.137Z,648.00
2019-01-30T07:09:47.127Z,688.00
2019-01-30T07:10:47.120Z,728.00
2019-01-30T07:11:47.120Z,768.00
2019-01-30T07:12:47.096Z,792.00
2019-01-30T07:13:47.097Z,840.00
2019-01-30T07:14:47.075Z,864.00
2019-01-30T07:15:47.065Z,900.00
2019-01-30T07:16:47.063Z,928.00
2019-01-30T07:17:47.043Z,956.00
2019-01-30T07:18:47.036Z,980.00
2019-01-30T07:19:47.025Z,1020.00
2019-01-30T07:20:47.019Z,1072.00
2019-01-30T07:21:47.015Z,1144.00
2019-01-30T07:22:46.993Z,1200.00
2019-01-30T07:23:46.984Z,1228.00
2019-01-30T07:24:46.972Z,1264.00
2019-01-30T07:25:46.961Z,1376.00
2019-01-30T07:26:46.959Z,1428.00
2019-01-30T07:27:46.940Z,1388.00
2019-01-30T07:28:46.929Z,1388.00
2019-01-30T07:29:46.919Z,1452.00
2019-01-30T07:30:46.909Z,1468.00
2019-01-30T07:31:46.906Z,1452.00
2019-01-30T07:32:46.886Z,1492.00
2019-01-30T07:33:46.875Z,1524.00
2019-01-30T07:34:46.865Z,1616.00
2019-01-30T07:35:46.858Z,1656.00
2019-01-30T07:36:46.853Z,1624.00
2019-01-30T07:37:46.833Z,1604.00
2019-01-30T07:38:46.822Z,1640.00
2019-01-30T07:39:46.813Z,1712.00
2019-01-30T07:40:46.801Z,1792.00
2019-01-30T07:41:46.799Z,1888.00
2019-01-30T07:42:46.780Z,1936.00
2019-01-30T07:43:46.769Z,1956.00
2019-01-30T07:44:50.922Z,1972.00
2019-01-30T07:45:46.747Z,1916.00
2019-01-30T07:46:46.775Z,1876.00
2019-01-30T07:47:46.725Z,1872.00
2019-01-30T07:48:46.718Z,1944.00
2019-01-30T07:49:46.704Z,1992.00
2019-01-30T07:50:46.693Z,2016.00
2019-01-30T07:51:46.687Z,2028.00
2019-01-30T07:52:46.687Z,2060.00
2019-01-30T07:53:46.662Z,2108.00
2019-01-30T07:54:46.654Z,2116.00
2019-01-30T07:55:46.639Z,2100.00
2019-01-30T07:56:46.630Z,2180.00
2019-01-30T07:57:46.626Z,2272.00
2019-01-30T07:58:46.607Z,2312.00
2019-01-30T07:59:46.598Z,2360.00
2019-01-30T08:00:46.595Z,2420.00
2019-01-30T08:01:46.576Z,2396.00
2019-01-30T08:02:52.995Z,2480.00
2019-01-30T08:03:47.554Z,2548.00
2019-01-30T08:04:46.610Z,2516.00
2019-01-30T08:05:46.536Z,2456.00
2019-01-30T08:06:46.530Z,2404.00
2019-01-30T08:07:46.523Z,2408.00
2019-01-30T08:08:46.529Z,2476.00
2019-01-30T08:09:46.491Z,2528.00
2019-01-30T08:10:46.482Z,2624.00
2019-01-30T08:11:46.474Z,2764.00
2019-01-30T08:12:46.467Z,2972.00
2019-01-30T08:13:46.449Z,3156.00
2019-01-30T08:14:46.438Z,2996.00
2019-01-30T08:15:46.430Z,2692.00
2019-01-30T08:16:48.090Z,2592.00
2019-01-30T08:17:46.418Z,2672.00
2019-01-30T08:18:46.396Z,2644.00
2019-01-30T08:19:46.388Z,2580.00
2019-01-30T08:20:46.376Z,2580.00
2019-01-30T08:21:46.364Z,2544.00
2019-01-30T08:22:46.391Z,2516.00
2019-01-30T08:23:46.369Z,2540.00
2019-01-30T08:24:46.573Z,2564.00
2019-01-30T08:25:46.559Z,2568.00
2019-01-30T08:26:46.659Z,2632.00
2019-01-30T08:27:46.626Z,2704.00
2019-01-30T08:28:46.409Z,2776.00
2019-01-30T08:29:46.402Z,2856.00
2019-01-30T08:30:46.607Z,2916.00
2019-01-30T08:31:46.549Z,3020.00
2019-01-30T08:32:46.583Z,3116.00
2019-01-30T08:33:46.237Z,3108.00
2019-01-30T08:34:46.228Z,3180.00
2019-01-30T08:35:46.221Z,3152.00
2019-01-30T08:36:46.218Z,3136.00
2019-01-30T08:37:46.209Z,3192.00
2019-01-30T08:38:46.185Z,3232.00
2019-01-30T08:39:46.178Z,3408.00
2019-01-30T08:40:46.164Z,3468.00
2019-01-30T08:41:46.158Z,3548.00
2019-01-30T08:42:46.151Z,3884.00
2019-01-30T08:43:46.132Z,3884.00
2019-01-30T08:44:47.033Z,4104.00
2019-01-30T08:45:46.110Z,4140.00
2019-01-30T08:46:46.101Z,4000.00
2019-01-30T08:47:46.130Z,4048.00
2019-01-30T08:48:46.079Z,4084.00
2019-01-30T08:49:46.069Z,4076.00
2019-01-30T08:50:46.058Z,4236.00
2019-01-30T08:51:46.049Z,4416.00
2019-01-30T08:52:46.038Z,4256.00
2019-01-30T08:53:46.034Z,4052.00
2019-01-30T08:54:46.014Z,3672.00
2019-01-30T08:55:46.007Z,3544.00
2019-01-30T08:56:53.019Z,3604.00
2019-01-30T08:57:46.984Z,3816.00
2019-01-30T08:58:45.980Z,3988.00
2019-01-30T08:59:45.961Z,4224.00
2019-01-30T09:00:45.953Z,4840.00
2019-01-30T09:01:45.942Z,5020.00
2019-01-30T09:02:45.932Z,5268.00
2019-01-30T09:03:45.937Z,4908.00
2019-01-30T09:04:45.907Z,4456.00
2019-01-30T09:05:45.910Z,4732.00
2019-01-30T09:06:45.888Z,5276.00
2019-01-30T09:07:45.875Z,5632.00
2019-01-30T09:08:45.873Z,5708.00
2019-01-30T09:09:45.854Z,5980.00
2019-01-30T09:10:45.843Z,5624.00
2019-01-30T09:11:45.831Z,4916.00
2019-01-30T09:12:45.820Z,4348.00
2019-01-30T09:13:45.823Z,4056.00
2019-01-30T09:14:45.801Z,3744.00
2019-01-30T09:15:45.790Z,3504.00
2019-01-30T09:16:45.782Z,3504.00
2019-01-30T09:17:45.768Z,3440.00
2019-01-30T09:18:45.766Z,3316.00
2019-01-30T09:19:45.747Z,3128.00
2019-01-30T09:20:45.736Z,3116.00
2019-01-30T09:21:45.725Z,3072.00
2019-01-30T09:22:45.717Z,3024.00
2019-01-30T09:23:45.753Z,3004.00
2019-01-30T09:24:45.693Z,2992.00
2019-01-30T09:25:45.682Z,2988.00
2019-01-30T09:26:45.673Z,3024.00
2019-01-30T09:27:45.665Z,3056.00
2019-01-30T09:28:45.659Z,3044.00
2019-01-30T09:29:45.641Z,3020.00
2019-01-30T09:30:45.629Z,3000.00
2019-01-30T09:31:45.618Z,3000.00
2019-01-30T09:32:45.645Z,2996.00
2019-01-30T09:33:45.596Z,2984.00
2019-01-30T09:34:45.651Z,2980.00
2019-01-30T09:35:45.598Z,2944.00
2019-01-30T09:36:45.564Z,2896.00
2019-01-30T09:37:45.573Z,2856.00
2019-01-30T09:38:45.594Z,2836.00
2019-01-30T09:39:45.542Z,2796.00
2019-01-30T09:40:45.520Z,2748.00
2019-01-30T09:41:45.511Z,2720.00
2019-01-30T09:42:45.859Z,2720.00
2019-01-30T09:43:45.489Z,2748.00
2019-01-30T09:44:45.491Z,2764.00
2019-01-30T09:45:45.467Z,2768.00
2019-01-30T09:46:45.459Z,2776.00
2019-01-30T09:47:45.466Z,2764.00
2019-01-30T09:48:45.436Z,2736.00
2019-01-30T09:49:45.517Z,2732.00
2019-01-30T09:50:45.413Z,2688.00
2019-01-30T09:51:45.412Z,2712.00
2019-01-30T09:52:45.400Z,2724.00
2019-01-30T09:53:45.381Z,2704.00
2019-01-30T09:54:45.379Z,2672.00
2019-01-30T09:55:45.359Z,2656.00
2019-01-30T09:56:45.351Z,2696.00
2019-01-30T09:57:45.337Z,2740.00
2019-01-30T09:58:45.331Z,2764.00
2019-01-30T09:59:45.324Z,2772.00
2019-01-30T10:00:45.306Z,2792.00
2019-01-30T10:01:45.298Z,2772.00
2019-01-30T10:02:45.286Z,2860.00
2019-01-30T10:03:45.274Z,2892.00
2019-01-30T10:04:45.311Z,2888.00
2019-01-30T10:05:45.252Z,2892.00
2019-01-30T10:06:45.241Z,2880.00
2019-01-30T10:07:45.246Z,2924.00
2019-01-30T10:08:45.222Z,2936.00
2019-01-30T10:09:45.214Z,2948.00
2019-01-30T10:10:45.208Z,2992.00
2019-01-30T10:11:45.188Z,3016.00
2019-01-30T10:12:45.176Z,3048.00
2019-01-30T10:13:45.165Z,3056.00
2019-01-30T10:14:45.159Z,3076.00
2019-01-30T10:15:45.155Z,3104.00
2019-01-30T10:16:45.135Z,3132.00
2019-01-30T10:17:45.123Z,3148.00
2019-01-30T10:18:45.113Z,3156.00
2019-01-30T10:19:45.171Z,3140.00
2019-01-30T10:20:45.099Z,3140.00
2019-01-30T10:21:45.079Z,3100.00
2019-01-30T10:22:45.069Z,3080.00
2019-01-30T10:23:45.058Z,3084.00
2019-01-30T10:24:45.049Z,3092.00
2019-01-30T10:25:45.050Z,3084.00
2019-01-30T10:26:45.032Z,3076.00
2019-01-30T10:27:45.015Z,3032.00
2019-01-30T10:28:45.005Z,3100.00
2019-01-30T10:29:45.000Z,3100.00
2019-01-30T10:30:44.996Z,3064.00
2019-01-30T10:31:44.971Z,3112.00
2019-01-30T10:32:44.961Z,3040.00
2019-01-30T10:33:46.631Z,3076.00
2019-01-30T10:34:44.940Z,3092.00
2019-01-30T10:35:44.944Z,3084.00
2019-01-30T10:36:44.920Z,3036.00
2019-01-30T10:37:44.908Z,2944.00
2019-01-30T10:38:44.900Z,2964.00
2019-01-30T10:39:44.886Z,3032.00
2019-01-30T10:40:44.897Z,3008.00
2019-01-30T10:41:44.869Z,3040.00
2019-01-30T10:42:44.853Z,3008.00
2019-01-30T10:43:44.842Z,3008.00
2019-01-30T10:44:44.831Z,3020.00
2019-01-30T10:45:44.829Z,3020.00
2019-01-30T10:46:44.811Z,3028.00
2019-01-30T10:47:44.800Z,3052.00
2019-01-30T10:48:44.788Z,3024.00
2019-01-30T10:49:44.779Z,3032.00
2019-01-30T10:50:44.778Z,2980.00
2019-01-30T10:51:44.757Z,2992.00
2019-01-30T10:52:44.746Z,3020.00
2019-01-30T10:53:44.736Z,2980.00
2019-01-30T10:54:44.725Z,3008.00
2019-01-30T10:55:44.723Z,2984.00
2019-01-30T10:56:44.705Z,2972.00
2019-01-30T10:57:44.694Z,2892.00
2019-01-30T10:58:44.683Z,2928.00
2019-01-30T10:59:44.673Z,3008.00
2019-01-30T11:00:44.669Z,2900.00
2019-01-30T11:01:44.705Z,2912.00
2019-01-30T11:02:46.483Z,2888.00
2019-01-30T11:03:44.629Z,2888.00
2019-01-30T11:04:44.623Z,2840.00
2019-01-30T11:05:44.658Z,2792.00
2019-01-30T11:06:44.598Z,2832.00
2019-01-30T11:07:44.587Z,2812.00
2019-01-30T11:08:44.576Z,2824.00
2019-01-30T11:09:44.566Z,2840.00
2019-01-30T11:10:44.581Z,2868.00
2019-01-30T11:11:44.550Z,2868.00
2019-01-30T11:12:44.534Z,2872.00
2019-01-30T11:13:44.527Z,2792.00
2019-01-30T11:14:44.514Z,2780.00
2019-01-30T11:15:44.503Z,2780.00
2019-01-30T11:16:44.503Z,2724.00
2019-01-30T11:17:44.483Z,2640.00
2019-01-30T11:18:44.471Z,2728.00
2019-01-30T11:19:45.488Z,2684.00
2019-01-30T11:20:44.450Z,2608.00
2019-01-30T11:21:44.450Z,2668.00
2019-01-30T11:22:44.428Z,2604.00
2019-01-30T11:23:44.418Z,2496.00
2019-01-30T11:24:44.413Z,2504.00
2019-01-30T11:25:44.397Z,2392.00
2019-01-30T11:26:44.394Z,2392.00
2019-01-30T11:27:44.375Z,2380.00
2019-01-30T11:28:44.366Z,2432.00
2019-01-30T11:29:44.361Z,2476.00
2019-01-30T11:30:44.344Z,2452.00
2019-01-30T11:31:44.341Z,2436.00
2019-01-30T11:32:44.322Z,2460.00
2019-01-30T11:33:44.311Z,2416.00
2019-01-30T11:34:44.303Z,2432.00
2019-01-30T11:35:44.290Z,2428.00
2019-01-30T11:36:44.382Z,2408.00
2019-01-30T11:37:44.270Z,2436.00
2019-01-30T11:38:44.258Z,2492.00
2019-01-30T11:39:44.249Z,2552.00
2019-01-30T11:40:44.237Z,2580.00
2019-01-30T11:41:44.235Z,2692.00
2019-01-30T11:42:44.223Z,2716.00
2019-01-30T11:43:44.206Z,2696.00
2019-01-30T11:44:44.195Z,2724.00
2019-01-30T11:45:44.185Z,2752.00
2019-01-30T11:46:44.196Z,2672.00
2019-01-30T11:47:44.164Z,2752.00
2019-01-30T11:48:44.152Z,2788.00
2019-01-30T11:49:44.142Z,2860.00
2019-01-30T11:50:44.132Z,2788.00
2019-01-30T11:51:44.129Z,2760.00
2019-01-30T11:52:44.110Z,2976.00
2019-01-30T11:53:44.099Z,2972.00
2019-01-30T11:54:44.089Z,3028.00
2019-01-30T11:55:44.081Z,3036.00
2019-01-30T11:56:44.075Z,3080.00
2019-01-30T11:57:44.058Z,3028.00
2019-01-30T11:58:44.046Z,3040.00
2019-01-30T11:59:44.035Z,2932.00
2019-01-30T12:00:44.024Z,2928.00
2019-01-30T12:01:44.025Z,2996.00
2019-01-30T12:02:47.953Z,3120.00
2019-01-30T12:03:43.994Z,3132.00
2019-01-30T12:04:43.984Z,3088.00
2019-01-30T12:05:43.972Z,3088.00
2019-01-30T12:06:43.970Z,3132.00
2019-01-30T12:07:43.955Z,3124.00
2019-01-30T12:08:43.941Z,2976.00
2019-01-30T12:09:43.930Z,2988.00
2019-01-30T12:10:43.919Z,3024.00
2019-01-30T12:11:43.918Z,3048.00
2019-01-30T12:12:43.898Z,3052.00
2019-01-30T12:13:43.887Z,3024.00
2019-01-30T12:14:43.876Z,3036.00
2019-01-30T12:15:43.866Z,3000.00
2019-01-30T12:16:43.864Z,3020.00
2019-01-30T12:17:43.847Z,3016.00
2019-01-30T12:18:43.835Z,3012.00
2019-01-30T12:19:43.823Z,3088.00
2019-01-30T12:20:43.815Z,3012.00
2019-01-30T12:21:43.814Z,3008.00
2019-01-30T12:22:43.795Z,3104.00
2019-01-30T12:23:43.782Z,3104.00
2019-01-30T12:24:43.770Z,3088.00
2019-01-30T12:25:43.759Z,3028.00
2019-01-30T12:26:43.784Z,3100.00
2019-01-30T12:27:43.744Z,3116.00
2019-01-30T12:28:43.728Z,2988.00
2019-01-30T12:29:43.718Z,3036.00
2019-01-30T12:30:43.706Z,3040.00
2019-01-30T12:31:43.698Z,3060.00
2019-01-30T12:32:43.694Z,3068.00
2019-01-30T12:33:43.675Z,3048.00
2019-01-30T12:34:43.665Z,2988.00
2019-01-30T12:35:43.653Z,2964.00
2019-01-30T12:36:43.643Z,2960.00
2019-01-30T12:37:43.642Z,3004.00
2019-01-30T12:38:43.622Z,2984.00
2019-01-30T12:39:43.611Z,2964.00
2019-01-30T12:40:43.600Z,2936.00
2019-01-30T12:41:43.589Z,2892.00
2019-01-30T12:42:43.587Z,2820.00